Time;durP1;ratioP1;P1;durP2;ratioP2;P2;SDS_P1;SDS_P2;PMS_P1;PMS_P2;Temp;Humidity;BMP_temperature;BMP_pressure;BME280_temperature;BME280_humidity;BME280_pressure;Samples;Min_cycle;Max_cycle;Signal;HPM_P1;HPM_P2
2023/06/16 00:01:06;;;;;;;16.65;8.63;;;;;;;18.23;100.00;97199.31;5073207;28;20132;-75
2023/06/16 00:03:35;;;;;;;13.48;8.20;;;;;;;18.16;100.00;97193.66;5073028;28;20582;-76
2023/06/16 00:06:12;;;;;;;13.98;8.70;;;;;;;18.25;100.00;97194.59;5091057;28;20489;-76
2023/06/16 00:08:39;;;;;;;15.25;7.60;;;;;;;18.23;100.00;97188.47;5091057;28;20024;-76
2023/06/16 00:11:05;;;;;;;13.90;7.95;;;;;;;18.21;100.00;97183.22;5091104;28;20020;-76
2023/06/16 00:13:30;;;;;;;15.45;8.73;;;;;;;18.21;100.00;97185.91;5072918;28;20030;-75
2023/06/16 00:15:56;;;;;;;13.98;8.38;;;;;;;18.28;100.00;97187.03;5073158;28;20055;-76
2023/06/16 00:18:23;;;;;;;15.75;8.20;;;;;;;18.26;100.00;97180.06;5055901;28;20031;-75
2023/06/16 00:20:51;;;;;;;15.38;8.23;;;;;;;18.23;100.00;97180.38;5073309;28;20153;-76
2023/06/16 00:23:20;;;;;;;22.58;9.50;;;;;;;18.21;100.00;97174.25;5073201;28;20392;-76
2023/06/16 00:25:45;;;;;;;17.45;9.10;;;;;;;18.23;100.00;97183.06;5090947;28;20055;-75
2023/06/16 00:28:11;;;;;;;15.85;9.35;;;;;;;18.25;100.00;97187.31;5090677;28;20028;-75
2023/06/16 00:30:36;;;;;;;14.48;8.88;;;;;;;18.21;100.00;97183.22;5072480;28;20039;-75
2023/06/16 00:33:02;;;;;;;16.98;9.38;;;;;;;18.26;100.00;97174.63;5090638;28;20028;-75
2023/06/16 00:35:27;;;;;;;16.33;9.52;;;;;;;18.26;100.00;97175.50;5072524;28;20465;-75
2023/06/16 00:37:53;;;;;;;18.40;9.55;;;;;;;18.25;100.00;97172.94;5072744;28;20028;-76
2023/06/16 00:40:18;;;;;;;15.05;8.80;;;;;;;18.25;100.00;97176.50;5090715;28;20039;-76
2023/06/16 00:42:44;;;;;;;19.10;9.45;;;;;;;18.25;100.00;97172.94;5072433;28;20089;-74
2023/06/16 00:45:10;;;;;;;16.85;9.43;;;;;;;18.26;100.00;97180.06;5062533;28;20094;-75
2023/06/16 00:47:36;;;;;;;17.02;9.77;;;;;;;18.26;100.00;97180.06;5035801;28;20555;-75
2023/06/16 00:50:01;;;;;;;20.45;10.68;;;;;;;18.20;100.00;97170.69;5052612;28;20099;-74
2023/06/16 00:52:30;;;;;;;17.05;9.77;;;;;;;18.24;100.00;97165.81;5052089;28;20024;-75
2023/06/16 00:54:56;;;;;;;19.23;10.15;;;;;;;18.27;100.00;97177.19;5052444;28;20027;-74
2023/06/16 00:57:22;;;;;;;18.63;10.05;;;;;;;18.27;100.00;97165.53;5070384;28;20104;-75
2023/06/16 00:59:47;;;;;;;18.08;9.85;;;;;;;18.27;100.00;97168.22;5046963;28;20028;-75
2023/06/16 01:02:13;;;;;;;18.80;9.63;;;;;;;18.27;100.00;97168.22;5090846;28;20016;-74
2023/06/16 01:04:40;;;;;;;16.65;9.73;;;;;;;18.28;100.00;97161.78;5090622;28;20024;-74
2023/06/16 01:07:09;;;;;;;17.90;10.23;;;;;;;18.36;100.00;97162.72;5072601;28;20089;-75
2023/06/16 01:09:37;;;;;;;16.30;9.48;;;;;;;18.38;100.00;97162.59;5072415;28;20437;-74
2023/06/16 01:12:35;;;;;;;19.40;10.60;;;;;;;18.40;100.00;97164.13;5072406;28;20384;-74
2023/06/16 01:15:06;;;;;;;16.23;8.90;;;;;;;18.40;100.00;97163.28;5086186;28;20407;-74
2023/06/16 01:17:44;;;;;;;16.20;9.18;;;;;;;18.41;100.00;97157.72;5063641;28;20058;-74
2023/06/16 01:20:24;;;;;;;19.77;9.07;;;;;;;18.40;100.00;97155.16;5052968;28;20032;-75
2023/06/16 01:23:20;;;;;;;15.80;9.05;;;;;;;18.38;100.00;97159.88;5071283;28;20024;-74
2023/06/16 01:25:48;;;;;;;14.75;9.52;;;;;;;18.41;100.00;97156.88;5067237;28;20498;-75
2023/06/16 01:28:18;;;;;;;13.70;9.25;;;;;;;18.39;100.00;97156.19;5052266;28;20024;-75
2023/06/16 01:30:44;;;;;;;15.50;8.52;;;;;;;18.39;100.00;97148.88;5065200;28;20077;-75
2023/06/16 01:33:11;;;;;;;13.38;8.77;;;;;;;18.41;100.00;97151.44;5072464;28;20032;-75
2023/06/16 01:35:37;;;;;;;22.65;9.63;;;;;;;18.39;100.00;97135.34;5055211;28;20028;-75
2023/06/16 01:38:03;;;;;;;15.50;9.07;;;;;;;18.35;100.00;97133.97;5072081;28;20024;-75
2023/06/16 01:40:30;;;;;;;17.65;9.65;;;;;;;18.32;100.00;97138.84;5090081;28;20383;-75
2023/06/16 01:42:56;;;;;;;14.30;9.07;;;;;;;18.36;100.00;97146.47;5073499;28;20028;-76
2023/06/16 01:45:23;;;;;;;14.25;8.45;;;;;;;18.33;100.00;97133.25;5058701;28;20639;-76
2023/06/16 01:47:48;;;;;;;14.85;8.05;;;;;;;18.42;100.00;97136.91;5075999;28;20032;-75
2023/06/16 01:50:14;;;;;;;14.18;8.70;;;;;;;18.40;100.00;97131.63;5075617;28;20042;-76
2023/06/16 01:52:40;;;;;;;13.02;7.53;;;;;;;18.41;100.00;97140.63;5075416;28;20488;-76
2023/06/16 01:55:06;;;;;;;10.15;7.18;;;;;;;18.37;100.00;97120.25;5075371;28;20053;-75
2023/06/16 01:57:32;;;;;;;11.77;7.32;;;;;;;18.38;100.00;97120.13;5058901;28;20105;-76
2023/06/16 02:00:08;;;;;;;13.93;7.55;;;;;;;18.37;100.00;97122.97;5075810;28;20028;-75
2023/06/16 02:02:34;;;;;;;18.35;8.80;;;;;;;18.39;100.00;97112.84;5075480;28;20088;-76
2023/06/16 02:05:03;;;;;;;10.40;7.32;;;;;;;18.35;100.00;97108.72;5075518;28;20107;-77
2023/06/16 02:07:32;;;;;;;15.68;8.07;;;;;;;18.30;100.00;97100.22;5046640;28;20028;-76
2023/06/16 02:10:02;;;;;;;15.70;8.10;;;;;;;18.36;100.00;97105.84;5038762;28;20052;-76
2023/06/16 02:12:28;;;;;;;13.75;8.05;;;;;;;18.43;100.00;97111.50;5055368;28;20410;-76
2023/06/16 02:14:54;;;;;;;10.77;7.20;;;;;;;18.38;100.00;97103.00;5055504;28;20020;-75
2023/06/16 02:17:26;;;;;;;11.00;8.23;;;;;;;18.28;100.00;97100.38;5072822;28;20158;-76
2023/06/16 02:19:52;;;;;;;12.32;7.80;;;;;;;18.29;100.00;97101.22;5072985;28;20031;-75
2023/06/16 02:22:17;;;;;;;14.07;7.85;;;;;;;18.28;100.00;97100.38;5072791;28;20112;-75
2023/06/16 02:24:43;;;;;;;11.18;7.43;;;;;;;18.30;100.00;97100.22;5054790;28;20028;-75
2023/06/16 02:27:09;;;;;;;11.50;7.75;;;;;;;18.31;100.00;97099.19;5055202;28;20028;-75
2023/06/16 02:29:34;;;;;;;11.95;7.80;;;;;;;18.36;100.00;97086.91;5054856;28;20036;-75
2023/06/16 02:31:59;;;;;;;11.55;7.10;;;;;;;18.34;100.00;97082.66;5038165;28;20020;-75
2023/06/16 02:34:25;;;;;;;13.35;6.95;;;;;;;18.35;100.00;97076.22;5072492;28;20391;-75
2023/06/16 02:36:51;;;;;;;13.35;7.45;;;;;;;18.38;100.00;97075.94;5085469;28;20024;-75
2023/06/16 02:39:18;;;;;;;15.55;6.88;;;;;;;18.38;100.00;97078.63;5057910;28;20029;-75
2023/06/16 02:41:44;;;;;;;11.95;7.70;;;;;;;18.36;100.00;97069.81;5092575;28;20030;-75
2023/06/16 02:44:09;;;;;;;10.20;7.57;;;;;;;18.33;100.00;97072.84;5074793;28;20210;-75
2023/06/16 02:46:35;;;;;;;13.82;7.22;;;;;;;18.37;100.00;97068.78;5055478;28;20048;-75
2023/06/16 02:49:00;;;;;;;10.32;7.35;;;;;;;18.38;100.00;97065.94;5057310;28;20016;-75
2023/06/16 02:51:26;;;;;;;12.60;7.78;;;;;;;18.38;100.00;97059.69;5057521;28;20023;-75
2023/06/16 02:53:51;;;;;;;10.93;7.72;;;;;;;18.38;100.00;97065.94;5085291;28;20036;-75
2023/06/16 02:56:17;;;;;;;13.40;8.10;;;;;;;18.35;100.00;97057.28;5072054;28;20016;-75
2023/06/16 02:58:43;;;;;;;12.55;7.82;;;;;;;18.37;100.00;97063.38;5054138;28;20029;-76
2023/06/16 03:01:08;;;;;;;11.55;7.40;;;;;;;18.41;100.00;97064.78;5071876;28;20017;-75
2023/06/16 03:03:36;;;;;;;12.70;8.02;;;;;;;18.41;100.00;97057.53;5066569;28;20429;-76
2023/06/16 03:06:02;;;;;;;12.88;7.75;;;;;;;18.42;100.00;97055.66;5057638;28;20032;-76
2023/06/16 03:08:28;;;;;;;16.45;9.50;;;;;;;18.48;100.00;97049.63;5073602;28;20051;-75
2023/06/16 03:10:53;;;;;;;14.80;9.65;;;;;;;18.41;100.00;97051.25;5037362;28;20104;-75
2023/06/16 03:13:19;;;;;;;17.20;9.45;;;;;;;18.40;100.00;97053.09;5071926;28;20039;-75
2023/06/16 03:15:45;;;;;;;14.05;8.15;;;;;;;18.43;100.00;97051.94;5053908;28;20603;-75
2023/06/16 03:18:11;;;;;;;12.27;8.40;;;;;;;18.40;100.00;97036.00;5058784;28;20046;-75
2023/06/16 03:20:37;;;;;;;16.15;9.73;;;;;;;18.41;100.00;97037.69;5056963;28;20035;-74
2023/06/16 03:23:03;;;;;;;10.77;7.25;;;;;;;18.39;100.00;97043.25;5073841;28;20028;-75
2023/06/16 03:25:30;;;;;;;11.85;7.68;;;;;;;18.44;100.00;97042.81;5073534;28;20170;-75
2023/06/16 03:27:56;;;;;;;23.20;12.55;;;;;;;18.43;100.00;97049.22;5073649;28;20084;-74
2023/06/16 03:30:22;;;;;;;13.75;9.18;;;;;;;18.46;100.00;97035.38;5073919;28;20020;-76
2023/06/16 03:32:48;;;;;;;16.85;8.18;;;;;;;18.50;100.00;97028.66;5056458;28;20028;-75
2023/06/16 03:35:13;;;;;;;12.10;8.00;;;;;;;18.57;100.00;97032.47;5056763;28;20419;-76
2023/06/16 03:37:39;;;;;;;24.25;13.73;;;;;;;18.56;100.00;97025.34;5073424;28;20498;-76
2023/06/16 03:40:05;;;;;;;18.83;10.10;;;;;;;18.56;100.00;97019.06;5073591;28;20028;-76
2023/06/16 03:42:32;;;;;;;18.20;8.98;;;;;;;18.61;100.00;97019.47;5073513;28;20028;-76
2023/06/16 03:44:58;;;;;;;11.57;8.00;;;;;;;18.59;100.00;97014.19;5056474;28;20036;-75
2023/06/16 03:47:24;;;;;;;21.85;11.57;;;;;;;18.58;100.00;97007.06;5073315;28;20023;-74
2023/06/16 03:49:49;;;;;;;29.65;12.50;;;;;;;18.60;100.00;97002.34;5073049;28;20032;-75
2023/06/16 03:52:15;;;;;;;20.30;12.13;;;;;;;18.64;100.00;97009.13;5073214;28;20027;-75
2023/06/16 03:54:41;;;;;;;15.75;9.48;;;;;;;18.67;100.00;97011.53;5073183;28;20085;-75
2023/06/16 03:57:06;;;;;;;13.48;10.00;;;;;;;18.59;100.00;97000.63;5091238;28;20027;-75
2023/06/16 03:59:32;;;;;;;15.15;9.27;;;;;;;18.55;100.00;96999.25;5091508;28;20052;-74
2023/06/16 04:01:58;;;;;;;19.00;9.82;;;;;;;18.61;100.00;96990.47;5090819;28;20475;-75
2023/06/16 04:04:25;;;;;;;18.80;10.60;;;;;;;18.66;100.00;96990.88;5073178;28;20054;-75
2023/06/16 04:06:51;;;;;;;15.07;8.93;;;;;;;18.66;100.00;96988.16;5072608;28;20063;-76
2023/06/16 04:09:16;;;;;;;23.02;12.13;;;;;;;18.67;100.00;96991.72;5073149;28;20089;-75
2023/06/16 04:11:42;;;;;;;25.27;11.90;;;;;;;18.69;100.00;96993.25;5056388;28;20483;-75
2023/06/16 04:14:09;;;;;;;25.08;13.85;;;;;;;18.69;100.00;96981.56;5072747;28;20039;-75
2023/06/16 04:16:35;;;;;;;13.70;8.02;;;;;;;18.64;100.00;96973.91;5073050;28;20035;-75
2023/06/16 04:19:03;;;;;;;13.98;9.52;;;;;;;18.65;100.00;96969.34;5072660;28;20032;-75
2023/06/16 04:21:28;;;;;;;13.95;8.23;;;;;;;18.65;100.00;96963.94;5056471;28;20036;-76
2023/06/16 04:23:54;;;;;;;13.52;8.68;;;;;;;18.68;100.00;96961.75;5090626;28;20046;-76
2023/06/16 04:26:22;;;;;;;21.75;13.38;;;;;;;18.78;100.00;96965.22;5072699;28;20028;-76
2023/06/16 04:28:54;;;;;;;15.80;9.88;;;;;;;18.85;100.00;96960.00;5090877;28;20132;-76
2023/06/16 04:31:29;;;;;;;15.10;9.15;;;;;;;18.83;100.00;96954.72;5073563;28;20111;-76
2023/06/16 04:34:03;;;;;;;22.92;9.40;;;;;;;18.90;100.00;96955.78;5073688;28;20479;-75
2023/06/16 04:36:29;;;;;;;19.05;11.27;;;;;;;18.89;100.00;96964.94;5090786;28;20463;-76
2023/06/16 04:38:58;;;;;;;18.48;12.15;;;;;;;18.85;100.00;96965.44;5072545;28;20102;-76
2023/06/16 04:41:24;;;;;;;18.98;11.50;;;;;;;18.80;100.00;96963.19;5072612;28;20035;-75
2023/06/16 04:43:53;;;;;;;32.92;17.77;;;;;;;18.76;100.00;96951.00;5090482;28;20032;-74
2023/06/16 04:46:18;;;;;;;18.67;11.23;;;;;;;18.81;100.00;96962.19;5052750;28;20059;-77
2023/06/16 04:48:44;;;;;;;21.88;11.80;;;;;;;18.80;100.00;96962.31;5052577;28;20107;-75
2023/06/16 04:51:10;;;;;;;30.05;14.48;;;;;;;18.91;100.00;96953.94;5052455;28;20036;-76
2023/06/16 04:53:36;;;;;;;33.45;16.15;;;;;;;18.88;100.00;96955.13;5035970;28;20029;-76
2023/06/16 04:56:02;;;;;;;25.65;16.70;;;;;;;18.98;100.00;96956.88;5052082;28;20223;-74
2023/06/16 04:58:29;;;;;;;36.67;23.08;;;;;;;19.03;100.00;96957.22;5035674;28;20037;-74
2023/06/16 05:00:54;;;;;;;66.30;38.92;;;;;;;19.00;100.00;96946.69;5035932;28;20093;-74
2023/06/16 05:03:20;;;;;;;54.95;36.30;;;;;;;18.98;100.00;96948.72;5035459;28;20036;-74
2023/06/16 05:05:45;;;;;;;22.88;14.55;;;;;;;19.04;100.00;96942.66;5052542;28;20028;-74
2023/06/16 05:08:11;;;;;;;17.25;9.20;;;;;;;19.21;100.00;96934.44;5070021;28;20468;-75
2023/06/16 05:10:38;;;;;;;21.17;10.63;;;;;;;19.49;100.00;96940.50;5083761;28;20036;-75
2023/06/16 05:13:03;;;;;;;19.52;11.40;;;;;;;19.69;100.00;96931.03;5072410;28;20084;-74
2023/06/16 05:15:29;;;;;;;15.60;9.80;;;;;;;19.88;100.00;96917.16;5055889;28;20449;-73
2023/06/16 05:17:55;;;;;;;17.73;11.38;;;;;;;20.13;100.00;96909.03;5091953;28;20020;-74
2023/06/16 05:20:20;;;;;;;15.77;10.10;;;;;;;20.39;100.00;96899.72;5093982;28;20024;-74
2023/06/16 05:22:46;;;;;;;14.70;8.95;;;;;;;20.54;100.00;96892.56;5076327;28;20031;-75
2023/06/16 05:25:11;;;;;;;13.90;8.02;;;;;;;20.55;100.00;96877.09;5075873;28;20215;-74
2023/06/16 05:27:37;;;;;;;11.50;7.93;;;;;;;20.56;100.00;96870.63;5076053;28;20024;-74
2023/06/16 05:30:02;;;;;;;16.05;8.25;;;;;;;20.77;100.00;96860.03;5094136;28;20027;-75
2023/06/16 05:32:28;;;;;;;13.02;7.35;;;;;;;20.98;100.00;96846.69;5075790;28;20023;-75
2023/06/16 05:34:53;;;;;;;13.48;7.68;;;;;;;21.17;100.00;96847.31;5076040;28;20137;-75
2023/06/16 05:37:20;;;;;;;16.05;8.65;;;;;;;21.29;100.00;96849.47;5075771;28;20028;-75
2023/06/16 05:39:47;;;;;;;20.70;13.10;;;;;;;21.26;100.00;96843.53;5076217;28;20398;-75
2023/06/16 05:42:14;;;;;;;14.50;8.95;;;;;;;21.22;100.00;96831.34;5075845;28;20103;-75
2023/06/16 05:44:46;;;;;;;13.43;7.85;;;;;;;21.27;100.00;96828.91;5075918;28;20028;-74
2023/06/16 05:47:11;;;;;;;15.40;8.07;;;;;;;21.21;100.00;96830.50;5058739;28;20039;-74
2023/06/16 05:49:37;;;;;;;12.82;8.63;;;;;;;21.02;100.00;96833.59;5075642;28;20024;-74
2023/06/16 05:52:05;;;;;;;12.07;8.43;;;;;;;21.20;100.00;96847.81;5075593;28;20530;-75
2023/06/16 05:54:31;;;;;;;10.57;7.57;;;;;;;21.34;100.00;96841.66;5055903;28;20540;-75
2023/06/16 05:56:57;;;;;;;10.27;6.82;;;;;;;21.50;100.00;96835.25;5055491;28;20178;-76
2023/06/16 05:59:23;;;;;;;11.23;6.90;;;;;;;21.67;100.00;96820.50;5073188;28;20134;-75
2023/06/16 06:01:51;;;;;;;15.73;10.70;;;;;;;22.15;100.00;96824.69;5055660;28;20445;-76
2023/06/16 06:04:26;;;;;;;13.85;8.57;;;;;;;22.56;100.00;96816.97;5057432;28;20020;-76
2023/06/16 06:10:03;;;;;;;11.27;6.28;;;;;;;22.94;100.00;96813.16;5073209;28;20036;-76
2023/06/16 06:12:28;;;;;;;10.00;6.97;;;;;;;23.10;100.00;96812.09;5069732;28;20460;-75
2023/06/16 06:14:54;;;;;;;8.95;5.93;;;;;;;23.11;100.00;96800.97;5077797;28;20035;-75
2023/06/16 06:17:19;;;;;;;10.95;5.57;;;;;;;23.37;100.00;96805.06;5054963;28;20479;-75
2023/06/16 06:19:45;;;;;;;9.73;4.70;;;;;;;23.51;100.00;96779.59;5072888;28;20024;-76
2023/06/16 06:22:10;;;;;;;5.57;4.07;;;;;;;23.82;100.00;96776.56;5090590;28;20032;-75
2023/06/16 06:24:36;;;;;;;6.60;5.05;;;;;;;23.86;100.00;96784.16;5062630;28;20032;-75
2023/06/16 06:27:02;;;;;;;6.68;4.68;;;;;;;24.45;100.00;96779.22;5054760;28;20138;-75
2023/06/16 06:29:27;;;;;;;8.43;3.75;;;;;;;24.58;100.00;96778.47;5054451;28;20040;-75
2023/06/16 06:31:53;;;;;;;7.57;4.68;;;;;;;24.86;100.00;96781.13;5053042;28;20024;-75
2023/06/16 06:34:18;;;;;;;23.67;10.77;;;;;;;24.92;100.00;96781.19;5092541;28;20044;-75
2023/06/16 06:36:47;;;;;;;16.52;6.65;;;;;;;25.03;100.00;96780.63;5074928;28;20035;-74
2023/06/16 06:39:13;;;;;;;7.85;4.05;;;;;;;24.53;100.00;96794.59;5054810;28;20115;-75
2023/06/16 06:41:40;;;;;;;6.03;4.60;;;;;;;24.60;100.00;96784.56;5066949;28;20466;-75
2023/06/16 06:44:06;;;;;;;4.10;3.70;;;;;;;25.03;100.00;96785.25;5084329;28;20038;-75
2023/06/16 06:46:32;;;;;;;8.63;4.35;;;;;;;25.30;100.00;96782.41;5070762;28;20500;-75
2023/06/16 06:48:57;;;;;;;6.35;3.90;;;;;;;25.58;100.00;96775.97;5072391;28;20499;-76
2023/06/16 06:51:23;;;;;;;7.45;3.53;;;;;;;25.60;100.00;96769.22;5072265;28;20066;-75
2023/06/16 06:53:48;;;;;;;7.47;4.10;;;;;;;25.54;100.00;96771.94;5071326;28;20103;-75
2023/06/16 06:56:15;;;;;;;6.80;4.55;;;;;;;25.31;100.00;96764.09;5054331;28;20020;-74
2023/06/16 06:58:41;;;;;;;5.63;3.85;;;;;;;25.60;100.00;96760.16;5071281;28;20062;-76
2023/06/16 07:01:06;;;;;;;8.55;4.57;;;;;;;26.00;100.00;96753.66;5070916;28;20028;-75
2023/06/16 07:03:32;;;;;;;18.60;6.15;;;;;;;25.35;100.00;96757.97;5050697;28;20040;-75
2023/06/16 07:05:58;;;;;;;14.73;5.65;;;;;;;25.52;100.00;96774.06;5051047;28;20518;-76
2023/06/16 07:08:23;;;;;;;8.60;4.60;;;;;;;25.43;100.00;96756.94;5034018;28;20032;-76
2023/06/16 07:10:49;;;;;;;5.50;4.38;;;;;;;25.32;100.00;96758.38;5055450;28;20150;-76
2023/06/16 07:13:15;;;;;;;8.52;4.65;;;;;;;25.34;100.00;96767.25;5072313;28;20020;-74
2023/06/16 07:15:40;;;;;;;7.07;4.40;;;;;;;24.57;100.00;96763.09;5042672;28;20379;-75
2023/06/16 07:18:06;;;;;;;7.18;5.43;;;;;;;24.92;100.00;96753.00;5050772;28;20112;-75
2023/06/16 07:20:31;;;;;;;11.55;4.72;;;;;;;25.44;100.00;96760.53;5050550;28;20431;-75
2023/06/16 07:22:57;;;;;;;5.60;4.00;;;;;;;25.47;100.00;96771.09;5050779;28;20037;-75
2023/06/16 07:25:23;;;;;;;6.05;4.28;;;;;;;26.24;100.00;96760.47;5033600;28;20021;-76
2023/06/16 07:27:48;;;;;;;6.07;3.58;;;;;;;26.27;100.00;96743.59;5050611;28;20075;-75
2023/06/16 07:30:14;;;;;;;5.47;3.92;;;;;;;26.49;100.00;96750.50;5050519;28;20384;-76
2023/06/16 07:32:40;;;;;;;9.68;4.30;;;;;;;26.31;100.00;96747.56;5050134;28;20036;-75
2023/06/16 07:35:07;;;;;;;9.38;5.88;;;;;;;26.07;100.00;96749.03;5051519;28;20021;-76
2023/06/16 07:37:32;;;;;;;5.80;4.05;;;;;;;25.77;100.00;96748.63;5050270;28;20104;-76
2023/06/16 07:39:58;;;;;;;19.13;4.68;;;;;;;25.72;100.00;96751.13;5051077;28;20056;-76
2023/06/16 07:42:24;;;;;;;5.85;4.00;;;;;;;25.73;100.00;96749.22;5050519;28;20021;-75
2023/06/16 07:44:50;;;;;;;8.52;4.28;;;;;;;25.86;100.00;96757.47;5053838;28;20381;-76
2023/06/16 07:47:15;;;;;;;6.03;4.72;;;;;;;25.67;100.00;96759.13;5059270;28;20036;-76
2023/06/16 07:49:43;;;;;;;9.50;3.85;;;;;;;25.71;100.00;96756.81;5091564;28;20495;-75
2023/06/16 07:52:13;;;;;;;4.85;4.00;;;;;;;25.98;100.00;96750.31;5073604;28;20031;-76
2023/06/16 07:54:40;;;;;;;7.38;4.30;;;;;;;26.54;100.00;96753.47;5056069;28;20028;-76
2023/06/16 07:57:07;;;;;;;6.18;4.00;;;;;;;27.02;100.00;96756.72;5050000;28;20059;-76
2023/06/16 07:59:32;;;;;;;5.50;3.53;;;;;;;27.72;100.00;96742.00;5052621;28;20098;-74
2023/06/16 08:01:58;;;;;;;5.70;4.00;;;;;;;26.77;100.00;96740.09;5072905;28;20027;-75
2023/06/16 08:04:29;;;;;;;4.40;3.80;;;;;;;27.24;100.00;96736.13;5091376;28;20028;-75
2023/06/16 08:06:54;;;;;;;5.15;3.78;;;;;;;28.36;100.00;96740.88;5091028;28;20019;-75
2023/06/16 08:09:38;;;;;;;4.88;3.95;;;;;;;28.79;100.00;96724.38;5070832;28;20645;-75
2023/06/16 08:12:09;;;;;;;11.65;5.80;;;;;;;28.89;100.00;96725.50;5053664;28;20473;-74
2023/06/16 08:14:35;;;;;;;18.02;6.50;;;;;;;29.41;100.00;96723.19;5065562;28;20038;-75
2023/06/16 08:17:01;;;;;;;6.35;4.10;;;;;;;29.96;100.00;96721.13;5064950;28;20071;-76
2023/06/16 08:19:26;;;;;;;7.75;4.22;;;;;;;29.79;100.00;96709.03;5083004;28;20439;-75
2023/06/16 08:21:52;;;;;;;6.55;4.55;;;;;;;29.95;100.00;96716.66;5040657;28;20025;-75
2023/06/16 08:24:17;;;;;;;9.63;4.50;;;;;;;30.07;100.00;96723.03;5070674;28;20396;-74
2023/06/16 08:26:44;;;;;;;20.15;4.60;;;;;;;29.84;100.00;96718.31;5052512;28;20021;-74
2023/06/16 08:29:10;;;;;;;11.63;4.43;;;;;;;28.97;100.00;96710.59;5052897;28;20029;-74
2023/06/16 08:31:38;;;;;;;5.30;4.07;;;;;;;28.60;100.00;96703.38;5052670;28;20388;-75
2023/06/16 08:34:04;;;;;;;6.32;4.57;;;;;;;28.61;100.00;96722.41;5052870;28;20028;-75
2023/06/16 08:36:30;;;;;;;7.10;5.15;;;;;;;28.65;100.00;96726.41;5053018;28;20031;-75
2023/06/16 08:38:55;;;;;;;6.45;4.03;;;;;;;28.67;100.00;96723.44;5070562;28;20055;-76
2023/06/16 08:41:25;;;;;;;9.98;4.10;;;;;;;28.62;100.00;96720.50;5052584;28;20032;-75
2023/06/16 08:43:51;;;;;;;7.13;4.53;;;;;;;28.42;100.00;96717.97;5036584;28;20036;-75
2023/06/16 08:46:16;;;;;;;10.32;4.35;;;;;;;28.58;100.00;96711.03;5052280;28;20033;-75
2023/06/16 08:48:42;;;;;;;4.45;3.92;;;;;;;28.55;100.00;96714.25;5068576;28;20144;-77
2023/06/16 08:51:10;;;;;;;5.78;4.50;;;;;;;28.58;100.00;96711.84;5072972;28;20483;-76
2023/06/16 08:53:36;;;;;;;6.43;4.57;;;;;;;29.86;100.00;96716.16;5094829;28;20028;-75
2023/06/16 08:56:05;;;;;;;5.43;4.57;;;;;;;30.69;99.57;96710.50;5057621;28;20107;-76
2023/06/16 08:58:31;;;;;;;10.73;4.28;;;;;;;30.77;95.70;96693.53;5045450;28;20031;-75
2023/06/16 09:01:02;;;;;;;7.47;4.30;;;;;;;30.10;98.25;96697.72;5059425;28;20031;-77
2023/06/16 09:03:32;;;;;;;8.65;4.57;;;;;;;29.70;100.00;96686.47;5076601;28;20016;-75
2023/06/16 09:06:00;;;;;;;5.55;3.90;;;;;;;29.43;100.00;96688.81;5060035;28;20032;-76
2023/06/16 09:08:26;;;;;;;8.02;4.15;;;;;;;29.28;100.00;96685.63;5076897;28;20046;-76
2023/06/16 09:10:54;;;;;;;18.20;5.65;;;;;;;29.04;100.00;96700.31;5056342;28;20044;-75
2023/06/16 09:13:20;;;;;;;8.55;4.93;;;;;;;29.02;100.00;96692.28;5088194;28;20034;-75
2023/06/16 09:15:49;;;;;;;7.07;4.10;;;;;;;29.87;100.00;96697.72;5056285;28;20497;-76
2023/06/16 09:18:15;;;;;;;10.77;4.88;;;;;;;31.46;86.94;96684.22;5056540;28;20036;-75
2023/06/16 09:20:41;;;;;;;8.48;4.90;;;;;;;32.09;79.60;96683.19;5056353;28;20400;-76
2023/06/16 09:23:08;;;;;;;8.27;4.53;;;;;;;32.18;78.07;96671.44;5078389;28;20022;-75
2023/06/16 09:25:34;;;;;;;7.32;4.22;;;;;;;32.83;75.42;96670.75;5076042;28;20540;-75
2023/06/16 09:28:10;;;;;;;10.80;3.90;;;;;;;33.34;71.97;96658.41;5076054;28;20062;-75
2023/06/16 09:30:36;;;;;;;5.35;4.40;;;;;;;32.52;77.00;96657.53;5094457;28;20020;-75
2023/06/16 09:33:02;;;;;;;12.82;4.78;;;;;;;32.69;75.81;96650.06;5066919;28;20043;-75
2023/06/16 09:35:30;;;;;;;8.15;6.18;;;;;;;32.43;78.44;96648.84;5073797;28;20483;-74
2023/06/16 09:38:00;;;;;;;9.52;4.20;;;;;;;31.89;73.40;96639.38;5058609;28;20553;-74
2023/06/16 09:40:30;;;;;;;5.47;4.15;;;;;;;31.03;82.52;96651.59;5076029;28;20028;-76
2023/06/16 09:42:58;;;;;;;5.18;3.97;;;;;;;31.46;80.33;96642.75;5093956;28;20050;-76
2023/06/16 09:45:44;;;;;;;8.00;3.78;;;;;;;31.10;81.27;96629.34;5075637;28;20066;-76
2023/06/16 09:48:11;;;;;;;6.13;4.68;;;;;;;32.15;71.54;96640.66;5078448;28;20062;-76
2023/06/16 09:50:37;;;;;;;9.20;4.85;;;;;;;32.80;70.31;96640.78;5075663;28;20605;-76
2023/06/16 09:53:07;;;;;;;6.07;4.47;;;;;;;32.91;69.94;96642.63;5058701;28;20024;-75
2023/06/16 09:55:41;;;;;;;6.05;4.32;;;;;;;32.71;70.38;96637.63;5075524;28;20024;-76
2023/06/16 09:58:07;;;;;;;10.45;5.28;;;;;;;32.04;74.79;96636.06;5073926;28;20021;-77
2023/06/16 10:00:33;;;;;;;8.20;4.60;;;;;;;32.68;72.74;96649.22;5046431;28;20047;-78
2023/06/16 10:03:00;;;;;;;9.02;4.45;;;;;;;33.90;66.64;96654.25;5038258;28;20111;-78
2023/06/16 10:05:28;;;;;;;8.07;4.68;;;;;;;33.61;66.98;96641.78;5075208;28;20027;-76
2023/06/16 10:07:59;;;;;;;5.50;4.55;;;;;;;33.42;62.99;96624.66;5075639;28;20020;-76
2023/06/16 10:10:29;;;;;;;9.13;4.88;;;;;;;32.78;67.11;96619.97;5075974;28;20028;-77
2023/06/16 10:12:56;;;;;;;5.32;4.53;;;;;;;32.35;73.95;96620.75;5074786;28;20035;-75
2023/06/16 10:15:25;;;;;;;6.15;4.47;;;;;;;31.30;82.70;96637.16;5073162;28;20472;-76
2023/06/16 10:17:53;;;;;;;6.90;4.50;;;;;;;31.38;79.34;96622.97;5069098;28;20132;-79
2023/06/16 10:20:25;;;;;;;6.15;4.22;;;;;;;32.45;79.34;96646.66;5038379;28;20131;-76
2023/06/16 10:22:51;;;;;;;8.40;3.85;;;;;;;34.47;63.96;96643.38;5055067;28;20024;-77
2023/06/16 10:25:17;;;;;;;7.78;3.80;;;;;;;36.28;56.52;96651.50;5038268;28;20036;-76
2023/06/16 10:27:43;;;;;;;4.07;3.28;;;;;;;37.72;49.13;96644.09;5055174;28;20021;-77
2023/06/16 10:30:16;;;;;;;7.38;4.00;;;;;;;37.48;47.06;96609.63;5055256;28;20105;-76
2023/06/16 10:32:48;;;;;;;3.88;3.47;;;;;;;36.61;48.40;96594.34;5060463;28;20028;-76
2023/06/16 10:35:14;;;;;;;4.85;4.05;;;;;;;35.40;51.57;96576.78;5074105;28;20102;-76
2023/06/16 10:37:40;;;;;;;8.60;5.90;;;;;;;36.16;51.20;96595.25;5072691;28;20442;-76
2023/06/16 10:40:08;;;;;;;5.55;3.88;;;;;;;35.17;55.74;96594.81;5038070;28;20131;-76
2023/06/16 10:42:35;;;;;;;7.25;4.25;;;;;;;34.79;60.69;96591.31;5054945;28;20369;-76
2023/06/16 10:45:35;;;;;;;7.75;4.20;;;;;;;35.95;55.08;96610.28;5054597;28;20491;-75
2023/06/16 10:48:03;;;;;;;7.40;4.05;;;;;;;36.89;49.99;96590.88;5013180;28;20515;-76
2023/06/16 10:50:43;;;;;;;11.32;3.72;;;;;;;38.95;45.46;96611.97;5054844;28;20041;-75
2023/06/16 10:53:14;;;;;;;8.77;4.28;;;;;;;39.38;44.30;96604.44;5055106;28;20047;-76
2023/06/16 10:55:42;;;;;;;;;;;;;;;39.61;43.37;96595.16;5055016;28;20024;-76
2023/06/16 10:58:14;;;;;;;5.05;4.13;;;;;;;38.13;45.25;96565.56;5054937;28;19908;-77
2023/06/16 11:00:44;;;;;;;4.30;3.67;;;;;;;35.49;51.29;96562.06;5072357;28;20442;-77
2023/06/16 11:03:10;;;;;;;5.75;4.30;;;;;;;34.58;58.26;96560.91;5069326;28;20024;-77
2023/06/16 11:05:39;;;;;;;3.40;3.10;;;;;;;33.16;65.81;96558.94;5054219;28;20031;-76
2023/06/16 11:08:11;;;;;;;4.30;3.03;;;;;;;32.93;73.36;96584.97;5054390;28;20032;-77
2023/06/16 11:11:06;;;;;;;5.82;3.40;;;;;;;32.83;70.56;96561.84;5091460;28;20101;-76
2023/06/16 11:13:40;;;;;;;4.32;3.38;;;;;;;32.65;74.56;96572.16;5036798;28;20129;-77
2023/06/16 11:16:06;;;;;;;7.45;3.50;;;;;;;32.64;72.49;96570.50;5056671;28;20023;-78
2023/06/16 11:18:37;;;;;;;4.55;3.97;;;;;;;32.90;72.78;96568.03;5074293;28;20035;-77
2023/06/16 11:21:06;;;;;;;3.87;3.40;;;;;;;32.68;73.41;96571.66;5057674;28;20085;-76
2023/06/16 11:23:34;;;;;;;4.25;3.28;;;;;;;31.95;77.53;96565.59;5056339;28;20024;-75
2023/06/16 11:26:04;;;;;;;5.68;3.85;;;;;;;30.82;87.09;96571.28;5037175;28;20056;-75